Time;durP1;ratioP1;P1;durP2;ratioP2;P2;SDS_P1;SDS_P2;PMS_P1;PMS_P2;Temp;Humidity;BMP_temperature;BMP_pressure;BME280_temperature;BME280_humidity;BME280_pressure;Samples;Min_cycle;Max_cycle;Signal;HPM_P1;HPM_P2
2022/12/03 00:02:17;;;;;;;33.75;15.30;;;4.40;99.90;;;;;;5004372;28;20041;-72
2022/12/03 00:04:42;;;;;;;39.53;17.30;;;4.40;99.90;;;;;;4998750;28;20018;-69
2022/12/03 00:07:10;;;;;;;37.25;16.58;;;4.40;99.90;;;;;;4999903;28;20030;-71
2022/12/03 00:09:38;;;;;;;39.47;17.20;;;4.40;99.90;;;;;;5015137;28;20022;-70
2022/12/03 00:12:06;;;;;;;36.70;15.57;;;4.40;99.90;;;;;;5005902;28;20025;-71
2022/12/03 00:14:32;;;;;;;41.40;16.85;;;4.40;99.90;;;;;;4999290;28;20068;-71
2022/12/03 00:16:59;;;;;;;39.45;16.33;;;4.40;99.90;;;;;;5002313;28;20050;-72
2022/12/03 00:19:28;;;;;;;38.58;16.60;;;4.40;99.90;;;;;;5003226;28;20913;-70
2022/12/03 00:21:56;;;;;;;37.97;16.55;;;4.40;99.90;;;;;;5005788;28;20551;-71
2022/12/03 00:24:23;;;;;;;36.38;16.23;;;4.40;99.90;;;;;;5008725;28;20045;-74
2022/12/03 00:26:51;;;;;;;42.47;17.33;;;4.40;99.90;;;;;;5001617;28;20344;-74
2022/12/03 00:29:17;;;;;;;36.17;15.73;;;4.40;99.90;;;;;;5006051;28;20057;-75
2022/12/03 00:31:44;;;;;;;33.72;16.10;;;4.40;99.90;;;;;;5007925;28;20717;-78
2022/12/03 00:34:10;;;;;;;36.03;16.38;;;4.40;99.90;;;;;;5004401;28;20077;-78
2022/12/03 00:36:35;;;;;;;34.97;15.23;;;4.50;99.90;;;;;;5011789;28;20062;-71
2022/12/03 00:39:05;;;;;;;39.70;16.17;;;4.50;99.90;;;;;;5007506;28;20026;-74
2022/12/03 00:41:31;;;;;;;37.35;15.02;;;4.50;99.90;;;;;;5010187;28;20021;-70
2022/12/03 00:43:57;;;;;;;38.08;16.45;;;4.50;99.90;;;;;;5001968;28;20037;-71
2022/12/03 00:46:26;;;;;;;41.28;17.48;;;4.50;99.90;;;;;;5005616;28;20038;-72
2022/12/03 00:48:56;;;;;;;38.25;16.13;;;4.50;99.90;;;;;;5003962;28;20042;-71
2022/12/03 00:51:24;;;;;;;123.75;39.13;;;4.50;99.90;;;;;;4999377;28;20065;-69
2022/12/03 00:53:50;;;;;;;39.33;17.55;;;4.50;99.90;;;;;;5002129;28;20041;-72
2022/12/03 00:56:16;;;;;;;36.92;17.02;;;4.50;99.90;;;;;;5004995;28;20030;-71
2022/12/03 00:58:43;;;;;;;41.38;17.70;;;4.40;99.90;;;;;;5005151;28;20114;-71
2022/12/03 01:01:09;;;;;;;40.47;16.60;;;4.40;99.90;;;;;;5002481;28;20034;-71
2022/12/03 01:03:35;;;;;;;33.35;15.38;;;4.40;99.90;;;;;;4999402;28;20041;-71
2022/12/03 01:06:00;;;;;;;39.38;16.05;;;4.40;99.90;;;;;;5002568;28;20034;-72
2022/12/03 01:08:26;;;;;;;37.83;17.02;;;4.30;99.90;;;;;;5002895;28;20036;-70
2022/12/03 01:10:52;;;;;;;38.20;16.85;;;4.40;99.90;;;;;;5008615;28;20040;-71
2022/12/03 01:13:17;;;;;;;40.28;16.58;;;4.40;99.90;;;;;;5002778;28;20502;-71
2022/12/03 01:15:45;;;;;;;38.53;16.77;;;4.40;99.90;;;;;;5000605;28;20084;-74
2022/12/03 01:18:11;;;;;;;38.50;16.60;;;4.50;99.90;;;;;;5004873;28;20092;-71
2022/12/03 01:20:37;;;;;;;38.00;16.10;;;4.50;99.90;;;;;;5002418;28;20014;-72
2022/12/03 01:23:03;;;;;;;31.60;15.68;;;4.50;99.90;;;;;;4996551;28;20026;-72
2022/12/03 01:25:29;;;;;;;37.55;17.08;;;4.50;99.90;;;;;;4998799;28;20053;-70
2022/12/03 01:27:57;;;;;;;35.85;16.65;;;4.50;99.90;;;;;;4999877;28;20042;-71
2022/12/03 01:30:23;;;;;;;37.90;16.92;;;4.40;99.90;;;;;;4999963;28;20042;-71
2022/12/03 01:32:48;;;;;;;42.50;17.65;;;4.30;99.90;;;;;;4999884;28;20371;-71
2022/12/03 01:35:19;;;;;;;37.60;16.75;;;4.30;99.90;;;;;;4997255;28;20031;-71
2022/12/03 01:37:44;;;;;;;40.42;17.20;;;4.40;99.90;;;;;;5000317;28;20113;-72
2022/12/03 01:40:12;;;;;;;35.67;16.42;;;4.40;99.90;;;;;;4996849;28;20113;-70
2022/12/03 01:42:44;;;;;;;36.53;16.45;;;4.30;99.90;;;;;;5012737;28;20036;-71
2022/12/03 01:45:20;;;;;;;38.95;16.67;;;4.30;99.90;;;;;;5000296;28;20470;-71
2022/12/03 01:47:46;;;;;;;35.78;15.15;;;4.30;99.90;;;;;;5000175;28;20034;-75
2022/12/03 01:50:33;;;;;;;38.78;16.77;;;4.40;99.90;;;;;;5020156;28;20028;-70
2022/12/03 01:53:01;;;;;;;38.70;17.17;;;4.40;99.90;;;;;;5004673;28;20598;-70
2022/12/03 01:55:28;;;;;;;38.92;16.20;;;4.40;99.90;;;;;;5005987;28;20033;-71
2022/12/03 01:57:59;;;;;;;43.03;17.38;;;4.40;99.90;;;;;;5006371;28;20061;-71
2022/12/03 02:00:26;;;;;;;44.35;17.25;;;4.40;99.90;;;;;;5001687;28;20085;-70
2022/12/03 02:02:59;;;;;;;43.55;18.05;;;4.30;99.90;;;;;;4999549;28;20108;-70
2022/12/03 02:05:30;;;;;;;42.72;19.27;;;4.30;99.90;;;;;;5000723;28;20034;-71
2022/12/03 02:07:57;;;;;;;40.40;17.67;;;4.30;99.90;;;;;;5006426;28;20022;-71
2022/12/03 02:10:33;;;;;;;37.10;16.33;;;4.30;99.90;;;;;;5006254;28;20018;-72
2022/12/03 02:13:00;;;;;;;41.20;17.55;;;4.30;99.90;;;;;;5007419;28;20056;-71
2022/12/03 02:15:26;;;;;;;46.33;17.38;;;4.30;99.90;;;;;;5004582;28;20021;-70
2022/12/03 02:17:55;;;;;;;44.97;17.98;;;4.30;99.90;;;;;;5021301;28;20021;-72
2022/12/03 02:20:21;;;;;;;43.10;18.63;;;4.40;99.90;;;;;;5003651;28;20030;-69
2022/12/03 02:23:01;;;;;;;42.80;18.13;;;4.30;99.90;;;;;;5006689;28;20025;-69
2022/12/03 02:25:31;;;;;;;43.80;18.58;;;4.40;99.90;;;;;;5007854;28;20034;-71
2022/12/03 02:28:00;;;;;;;41.53;18.60;;;4.40;99.90;;;;;;5006650;28;20014;-71
2022/12/03 02:30:28;;;;;;;43.58;17.85;;;4.40;99.90;;;;;;5005786;28;20022;-71
2022/12/03 02:32:57;;;;;;;42.22;18.08;;;4.40;99.90;;;;;;5005669;28;20101;-71
2022/12/03 02:35:26;;;;;;;46.92;18.88;;;4.50;99.90;;;;;;5006228;28;20046;-71
2022/12/03 02:38:17;;;;;;;44.83;17.85;;;4.50;99.90;;;;;;5006568;28;20459;-71
2022/12/03 02:40:45;;;;;;;40.83;17.42;;;4.50;99.90;;;;;;5006310;28;20112;-72
2022/12/03 02:43:13;;;;;;;41.63;18.02;;;4.50;99.90;;;;;;5000869;28;20062;-72
2022/12/03 02:45:48;;;;;;;42.92;18.45;;;4.40;99.90;;;;;;5001096;28;20456;-71
2022/12/03 02:48:20;;;;;;;39.80;17.33;;;4.40;99.90;;;;;;5004039;28;20104;-70
2022/12/03 02:50:52;;;;;;;44.72;19.02;;;4.30;99.90;;;;;;5002774;28;20033;-71
2022/12/03 02:53:22;;;;;;;41.38;18.88;;;4.30;99.90;;;;;;5002033;28;20348;-70
2022/12/03 02:55:49;;;;;;;43.15;18.48;;;4.40;99.90;;;;;;5014617;28;20125;-70
2022/12/03 02:58:17;;;;;;;49.83;19.23;;;4.40;99.90;;;;;;5007248;28;20095;-71
2022/12/03 03:00:43;;;;;;;48.17;19.05;;;4.30;99.90;;;;;;5004513;28;20120;-72
2022/12/03 03:03:10;;;;;;;43.47;18.95;;;4.30;99.90;;;;;;5005969;28;20026;-71
2022/12/03 03:05:38;;;;;;;43.33;19.00;;;4.30;99.90;;;;;;5001721;28;20045;-70
2022/12/03 03:08:06;;;;;;;48.20;18.25;;;4.30;99.90;;;;;;5002202;28;20084;-71
2022/12/03 03:10:34;;;;;;;49.15;19.95;;;4.30;99.90;;;;;;5018310;28;20084;-70
2022/12/03 03:13:02;;;;;;;41.92;19.20;;;4.40;99.90;;;;;;5002944;28;20034;-71
2022/12/03 03:15:28;;;;;;;44.08;19.55;;;4.40;99.90;;;;;;5003059;28;20014;-71
2022/12/03 03:17:54;;;;;;;44.47;19.10;;;4.40;99.90;;;;;;5004676;28;20040;-71
2022/12/03 03:20:22;;;;;;;49.75;20.77;;;4.40;99.90;;;;;;5010781;28;20759;-71
2022/12/03 03:22:48;;;;;;;41.72;18.77;;;4.40;99.90;;;;;;5003711;28;20026;-71
2022/12/03 03:25:19;;;;;;;45.35;19.85;;;4.40;99.90;;;;;;5005574;28;20584;-72
2022/12/03 03:27:45;;;;;;;46.65;18.45;;;4.40;99.90;;;;;;5005284;28;20026;-72
2022/12/03 03:30:12;;;;;;;44.75;20.08;;;4.30;99.90;;;;;;5005890;28;20083;-71
2022/12/03 03:32:41;;;;;;;51.65;20.23;;;4.30;99.90;;;;;;5005461;28;20091;-71
2022/12/03 03:35:08;;;;;;;46.17;18.50;;;4.30;99.90;;;;;;5009050;28;20037;-72
2022/12/03 03:37:34;;;;;;;48.72;20.35;;;4.30;99.90;;;;;;4999605;28;20037;-71
2022/12/03 03:40:00;;;;;;;48.97;19.55;;;4.30;99.90;;;;;;5023874;28;20650;-72
2022/12/03 03:42:26;;;;;;;52.55;19.85;;;4.30;99.90;;;;;;5004665;28;20053;-71
2022/12/03 03:44:54;;;;;;;39.40;17.50;;;4.30;99.90;;;;;;5001343;28;20021;-71
2022/12/03 03:47:22;;;;;;;44.25;18.67;;;4.30;99.90;;;;;;5003254;28;20034;-71
2022/12/03 03:49:49;;;;;;;45.38;18.95;;;4.40;99.90;;;;;;5001238;28;20057;-74
2022/12/03 03:52:18;;;;;;;43.78;18.23;;;4.40;99.90;;;;;;5004056;28;20026;-72
2022/12/03 03:54:45;;;;;;;52.33;19.25;;;4.50;99.90;;;;;;5004082;28;20040;-72
2022/12/03 03:57:11;;;;;;;45.35;18.08;;;4.50;99.90;;;;;;5006205;28;20068;-71
2022/12/03 03:59:39;;;;;;;44.45;17.23;;;4.50;99.90;;;;;;5005576;28;20054;-71
2022/12/03 04:02:05;;;;;;;46.75;19.33;;;4.30;99.90;;;;;;4996609;28;20019;-71
2022/12/03 04:04:35;;;;;;;44.55;18.10;;;4.40;99.90;;;;;;5002245;28;20088;-73
2022/12/03 04:07:01;;;;;;;46.25;18.55;;;4.30;99.90;;;;;;5004626;28;20033;-71
2022/12/03 04:09:26;;;;;;;45.72;19.73;;;4.30;99.90;;;;;;5017548;28;20030;-69
2022/12/03 04:14:39;;;;;;;47.97;17.35;;;4.30;99.90;;;;;;4998755;28;21358;-71
2022/12/03 04:17:04;;;;;;;48.47;18.52;;;4.20;99.90;;;;;;5002694;28;20374;-71
2022/12/03 04:19:30;;;;;;;56.45;18.77;;;4.20;99.90;;;;;;5017516;28;20029;-70
2022/12/03 04:24:40;;;;;;;48.72;18.70;;;4.20;99.90;;;;;;5001210;28;20109;-71
2022/12/03 04:29:49;;;;;;;52.05;19.55;;;4.10;99.90;;;;;;5003536;28;20088;-72
2022/12/03 04:37:43;;;;;;;54.10;19.52;;;4.20;99.90;;;;;;5005474;28;20042;-72
2022/12/03 04:40:59;;;;;;;45.17;17.35;;;4.10;99.90;;;;;;4998386;28;20037;-71
2022/12/03 04:42:55;;;;;;;47.58;18.45;;;4.10;99.90;;;;;;5002874;28;20037;-72
2022/12/03 04:45:20;;;;;;;48.42;19.30;;;4.10;99.90;;;;;;5001141;28;20026;-72
2022/12/03 04:47:46;;;;;;;52.22;18.80;;;4.30;99.90;;;;;;5003465;28;20128;-70
2022/12/03 04:50:19;;;;;;;48.85;19.13;;;4.20;99.90;;;;;;5004898;28;20431;-73
2022/12/03 04:52:45;;;;;;;47.10;18.83;;;4.30;99.90;;;;;;4998183;28;20348;-72
2022/12/03 04:55:13;;;;;;;56.25;19.15;;;4.30;99.90;;;;;;5002965;28;20033;-72
2022/12/03 04:57:38;;;;;;;49.63;18.73;;;4.20;99.90;;;;;;5014163;28;20034;-72
2022/12/03 05:00:05;;;;;;;50.17;18.52;;;4.30;99.90;;;;;;5004104;28;20030;-70
2022/12/03 05:02:30;;;;;;;49.38;18.08;;;4.30;99.90;;;;;;5002914;28;20030;-72
2022/12/03 05:04:58;;;;;;;49.00;18.85;;;4.20;99.90;;;;;;4999083;28;20029;-71
2022/12/03 05:07:23;;;;;;;45.83;17.13;;;4.20;99.90;;;;;;5002349;28;20057;-72
2022/12/03 05:09:51;;;;;;;47.90;18.25;;;4.20;99.90;;;;;;5003531;28;20066;-71
2022/12/03 05:12:17;;;;;;;48.83;18.75;;;4.20;99.90;;;;;;5000988;28;20034;-71
2022/12/03 05:14:43;;;;;;;47.58;17.90;;;4.20;99.90;;;;;;5000848;28;20371;-72
2022/12/03 05:17:09;;;;;;;48.33;17.83;;;4.10;99.90;;;;;;4997256;28;20050;-72
2022/12/03 05:22:19;;;;;;;46.88;17.50;;;4.10;99.90;;;;;;5002048;28;20037;-72
2022/12/03 05:24:46;;;;;;;46.05;16.63;;;4.20;99.90;;;;;;5016015;28;20018;-72
2022/12/03 05:27:14;;;;;;;48.85;17.60;;;4.20;99.90;;;;;;5004882;28;20414;-72
2022/12/03 05:29:43;;;;;;;45.30;17.35;;;4.20;99.90;;;;;;5005743;28;20088;-71
2022/12/03 05:32:08;;;;;;;42.88;16.95;;;4.20;99.90;;;;;;5008513;28;20120;-70
2022/12/03 05:34:34;;;;;;;47.00;17.30;;;4.20;99.90;;;;;;5007361;28;20498;-70
2022/12/03 05:37:04;;;;;;;49.88;18.45;;;4.20;99.90;;;;;;5007398;28;20185;-71
2022/12/03 05:39:32;;;;;;;51.25;17.70;;;4.20;99.90;;;;;;5019338;28;20418;-70
2022/12/03 05:44:44;;;;;;;50.08;19.90;;;4.20;99.90;;;;;;5003561;28;20037;-72
2022/12/03 05:47:10;;;;;;;46.72;17.38;;;4.10;99.90;;;;;;5005349;28;20100;-72
2022/12/03 05:49:35;;;;;;;52.88;17.88;;;4.10;99.90;;;;;;5005155;28;20034;-71
2022/12/03 05:52:01;;;;;;;48.22;17.48;;;4.20;99.90;;;;;;5003700;28;20446;-71
2022/12/03 05:54:27;;;;;;;55.80;18.73;;;4.20;99.90;;;;;;5018133;28;20105;-70
2022/12/03 05:56:52;;;;;;;47.20;17.63;;;4.20;99.90;;;;;;5006378;28;20109;-73
2022/12/03 05:59:20;;;;;;;46.83;18.92;;;4.20;99.90;;;;;;5015948;28;20138;-74
2022/12/03 06:01:46;;;;;;;59.05;18.67;;;4.20;99.90;;;;;;5002644;28;20021;-70
2022/12/03 06:04:14;;;;;;;48.95;18.17;;;4.20;99.90;;;;;;5003101;28;20089;-72
2022/12/03 06:06:39;;;;;;;50.92;17.63;;;4.20;99.90;;;;;;5004162;28;20029;-71
2022/12/03 06:09:05;;;;;;;54.63;18.08;;;4.20;99.90;;;;;;5005012;28;20096;-72
2022/12/03 06:11:35;;;;;;;48.90;18.52;;;4.10;99.90;;;;;;5001390;28;20486;-73
2022/12/03 06:14:01;;;;;;;49.42;17.10;;;4.10;99.90;;;;;;5026469;28;20040;-73
2022/12/03 06:16:27;;;;;;;46.47;17.30;;;4.10;99.90;;;;;;5010191;28;20065;-71
2022/12/03 06:18:53;;;;;;;52.92;18.15;;;4.10;99.90;;;;;;5014679;28;20022;-70
2022/12/03 06:21:18;;;;;;;46.53;17.00;;;4.10;99.90;;;;;;5010404;28;20053;-71
2022/12/03 06:23:44;;;;;;;53.92;18.75;;;4.10;99.90;;;;;;5007046;28;20073;-70
2022/12/03 06:26:10;;;;;;;54.30;18.55;;;4.10;99.90;;;;;;5004137;28;20105;-71
2022/12/03 06:28:36;;;;;;;50.95;18.08;;;4.10;99.90;;;;;;5007819;28;20033;-72
2022/12/03 06:31:02;;;;;;;57.78;18.17;;;4.10;99.90;;;;;;5029294;28;20021;-70
2022/12/03 06:33:28;;;;;;;53.50;19.73;;;4.20;99.90;;;;;;5004026;28;20999;-72
2022/12/03 06:35:53;;;;;;;58.30;19.33;;;4.20;99.90;;;;;;5001973;28;20455;-71
2022/12/03 06:38:19;;;;;;;57.08;19.73;;;4.20;99.90;;;;;;5002163;28;20033;-70
2022/12/03 06:40:45;;;;;;;61.75;21.23;;;4.20;99.90;;;;;;5021485;28;20344;-71
2022/12/03 06:43:13;;;;;;;70.10;21.33;;;4.10;99.90;;;;;;5007250;28;20423;-71
2022/12/03 06:45:38;;;;;;;59.75;20.45;;;4.10;99.90;;;;;;5006240;28;20030;-71
2022/12/03 06:48:04;;;;;;;56.83;20.17;;;4.10;99.90;;;;;;5006684;28;20362;-70
2022/12/03 06:50:30;;;;;;;55.63;20.10;;;4.10;99.90;;;;;;5003805;28;20034;-71
2022/12/03 06:52:56;;;;;;;61.10;20.02;;;4.10;99.90;;;;;;5003866;28;20025;-70
2022/12/03 06:55:21;;;;;;;62.60;20.73;;;4.10;99.90;;;;;;5003783;28;20030;-72
2022/12/03 06:57:47;;;;;;;62.60;21.17;;;4.10;99.90;;;;;;5005989;28;20026;-72
2022/12/03 07:00:13;;;;;;;64.43;22.45;;;4.10;99.90;;;;;;5004855;28;20054;-71
2022/12/03 07:02:39;;;;;;;66.68;21.65;;;4.10;99.90;;;;;;5004102;28;20022;-71
2022/12/03 07:05:10;;;;;;;63.45;20.90;;;4.20;99.90;;;;;;5003966;28;20037;-69
2022/12/03 07:07:35;;;;;;;56.97;20.30;;;4.20;99.90;;;;;;5005498;28;20463;-71
2022/12/03 07:10:01;;;;;;;58.33;19.17;;;4.10;99.90;;;;;;5023540;28;20025;-70
2022/12/03 07:12:27;;;;;;;58.20;18.67;;;4.10;99.90;;;;;;5020186;28;20462;-76
2022/12/03 07:14:52;;;;;;;47.65;17.55;;;4.10;99.90;;;;;;5006061;28;20041;-74
2022/12/03 07:17:18;;;;;;;54.67;17.10;;;4.00;99.90;;;;;;5001847;28;20026;-76
2022/12/03 07:19:44;;;;;;;54.10;17.45;;;4.00;99.90;;;;;;5007901;28;20018;-74
2022/12/03 07:22:10;;;;;;;48.20;17.77;;;4.00;99.90;;;;;;5002707;28;20301;-75
2022/12/03 07:24:35;;;;;;;49.67;16.30;;;4.00;99.90;;;;;;5006179;28;20018;-73
2022/12/03 07:27:01;;;;;;;52.72;18.30;;;3.90;99.90;;;;;;5003246;28;20450;-74
2022/12/03 07:29:27;;;;;;;42.08;16.52;;;3.90;99.90;;;;;;5002777;28;20428;-76
2022/12/03 07:31:52;;;;;;;47.53;17.70;;;3.90;99.90;;;;;;5002905;28;20033;-73
2022/12/03 07:34:18;;;;;;;51.53;15.77;;;3.90;99.90;;;;;;4999765;28;20037;-76
2022/12/03 07:36:43;;;;;;;52.20;15.95;;;3.90;99.90;;;;;;5007404;28;20038;-75
2022/12/03 07:39:09;;;;;;;54.03;16.40;;;4.00;99.90;;;;;;5009989;28;20025;-74
2022/12/03 07:41:37;;;;;;;49.05;15.68;;;4.00;99.90;;;;;;5010126;28;20036;-74
2022/12/03 07:44:03;;;;;;;52.50;15.32;;;4.00;99.90;;;;;;5021468;28;20021;-73
2022/12/03 07:46:30;;;;;;;47.28;16.25;;;4.00;99.90;;;;;;5014061;28;20037;-76
2022/12/03 07:48:56;;;;;;;50.70;16.83;;;3.90;99.90;;;;;;5007592;28;20084;-76
2022/12/03 07:51:25;;;;;;;54.40;17.90;;;3.90;99.90;;;;;;5003084;28;20034;-75
2022/12/03 07:53:50;;;;;;;48.15;15.13;;;3.90;99.90;;;;;;5009290;28;20363;-71
2022/12/03 07:56:21;;;;;;;55.70;17.65;;;3.90;99.90;;;;;;5007400;28;20040;-74
2022/12/03 07:58:47;;;;;;;49.85;16.50;;;3.90;99.90;;;;;;5008510;28;20148;-71
2022/12/03 08:01:13;;;;;;;49.10;16.30;;;3.90;99.90;;;;;;5005895;28;20427;-71
2022/12/03 08:03:41;;;;;;;39.25;14.57;;;4.00;99.90;;;;;;5001028;28;20022;-75
2022/12/03 08:06:10;;;;;;;40.75;15.60;;;3.90;99.90;;;;;;4998807;28;20100;-74
2022/12/03 08:08:35;;;;;;;38.35;14.48;;;3.80;99.90;;;;;;5007309;28;20122;-76
2022/12/03 08:11:02;;;;;;;37.17;14.40;;;3.80;99.90;;;;;;5020020;28;20458;-75
2022/12/03 08:13:27;;;;;;;40.85;15.13;;;3.70;99.90;;;;;;5008420;28;20034;-76
2022/12/03 08:16:07;;;;;;;35.20;14.00;;;3.80;99.90;;;;;;5004751;28;20340;-76
2022/12/03 08:18:33;;;;;;;44.40;16.08;;;3.80;99.90;;;;;;5000709;28;20034;-76
2022/12/03 08:21:01;;;;;;;39.05;14.20;;;3.80;99.90;;;;;;5001923;28;20026;-75
2022/12/03 08:23:29;;;;;;;154.38;50.08;;;3.80;99.90;;;;;;5006631;28;20022;-74
2022/12/03 08:25:58;;;;;;;41.92;15.98;;;3.90;99.90;;;;;;5004462;28;20026;-76
2022/12/03 08:28:25;;;;;;;39.75;14.57;;;3.90;99.90;;;;;;5004923;28;20430;-76
2022/12/03 08:31:12;;;;;;;34.30;13.93;;;3.90;99.90;;;;;;5010175;28;20552;-76
2022/12/03 08:33:40;;;;;;;35.00;13.65;;;4.00;99.90;;;;;;5012806;28;20050;-75
2022/12/03 08:36:21;;;;;;;38.30;14.73;;;4.00;99.90;;;;;;5011826;28;20033;-76
2022/12/03 08:38:51;;;;;;;39.65;14.40;;;4.00;99.90;;;;;;5004190;28;20025;-74
2022/12/03 08:44:26;;;;;;;37.47;13.85;;;4.00;99.90;;;;;;5005099;28;20034;-75
2022/12/03 08:47:21;;;;;;;42.33;14.30;;;4.10;99.90;;;;;;5021557;28;20022;-75
2022/12/03 08:50:00;;;;;;;38.53;14.15;;;4.10;99.90;;;;;;5015054;28;20046;-76
2022/12/03 08:52:33;;;;;;;49.78;14.15;;;4.00;99.90;;;;;;5007780;28;20034;-75
2022/12/03 08:55:18;;;;;;;44.70;14.98;;;4.00;99.90;;;;;;5019912;28;20092;-75
2022/12/03 08:57:43;;;;;;;38.13;14.35;;;4.10;99.90;;;;;;5014333;28;20120;-75
2022/12/03 09:00:09;;;;;;;39.08;15.05;;;4.00;99.90;;;;;;5005046;28;20506;-76
2022/12/03 09:02:35;;;;;;;42.03;15.38;;;4.00;99.90;;;;;;5004376;28;20026;-76
2022/12/03 09:05:17;;;;;;;40.95;14.88;;;4.00;99.90;;;;;;4999218;28;20030;-76
2022/12/03 09:07:43;;;;;;;46.97;15.75;;;4.10;99.90;;;;;;5000388;28;20126;-74
2022/12/03 09:10:09;;;;;;;39.88;15.23;;;4.10;99.90;;;;;;5020307;28;20117;-75
2022/12/03 09:12:39;;;;;;;40.72;15.20;;;4.10;99.90;;;;;;4999392;28;20109;-72
2022/12/03 09:15:06;;;;;;;35.35;13.57;;;4.10;99.90;;;;;;5003583;28;20038;-77
2022/12/03 09:17:34;;;;;;;37.03;14.38;;;4.10;99.90;;;;;;5001616;28;20030;-75
2022/12/03 09:20:05;;;;;;;32.72;13.80;;;4.10;99.90;;;;;;5008594;28;20022;-73
2022/12/03 09:22:32;;;;;;;34.10;13.63;;;4.10;99.90;;;;;;5001462;28;20030;-75
2022/12/03 09:24:57;;;;;;;33.53;13.90;;;4.10;99.90;;;;;;5017082;28;20030;-75
2022/12/03 09:27:27;;;;;;;35.90;14.02;;;4.10;99.90;;;;;;5012406;28;20296;-77
2022/12/03 09:29:55;;;;;;;39.38;13.77;;;4.10;99.90;;;;;;5002059;28;20030;-76
2022/12/03 09:32:21;;;;;;;36.45;14.23;;;4.20;99.90;;;;;;4999567;28;20034;-75
2022/12/03 09:34:47;;;;;;;34.72;14.13;;;4.20;99.90;;;;;;4998866;28;20053;-75
2022/12/03 09:37:12;;;;;;;40.08;14.57;;;4.30;99.90;;;;;;5001104;28;20027;-78
2022/12/03 09:39:38;;;;;;;43.92;14.32;;;4.40;99.90;;;;;;5000426;28;20030;-78
2022/12/03 09:42:04;;;;;;;82.80;31.20;;;4.40;99.90;;;;;;5003586;28;20032;-76
2022/12/03 09:44:33;;;;;;;38.70;14.45;;;4.50;99.90;;;;;;4998772;28;20026;-75
2022/12/03 09:47:00;;;;;;;34.03;13.50;;;4.50;99.90;;;;;;5007596;28;20534;-76
2022/12/03 09:49:27;;;;;;;39.15;14.60;;;4.50;99.90;;;;;;5004587;28;20565;-77
2022/12/03 09:51:56;;;;;;;32.25;12.75;;;4.50;99.90;;;;;;5004961;28;20100;-75
2022/12/03 09:54:27;;;;;;;34.63;14.40;;;4.40;99.90;;;;;;5008646;28;20117;-75
2022/12/03 09:56:55;;;;;;;31.58;12.98;;;4.40;99.90;;;;;;5005300;28;20030;-77
2022/12/03 09:59:26;;;;;;;35.58;13.05;;;4.30;99.90;;;;;;4999162;28;20038;-77
2022/12/03 10:01:53;;;;;;;39.55;13.98;;;4.40;99.90;;;;;;5005702;28;20417;-74
2022/12/03 10:04:19;;;;;;;42.75;15.18;;;4.50;99.90;;;;;;5003947;28;20104;-76
2022/12/03 10:06:45;;;;;;;40.58;14.20;;;4.50;99.90;;;;;;5002847;28;20069;-73
2022/12/03 10:09:13;;;;;;;44.90;15.07;;;4.50;99.90;;;;;;5014225;28;20067;-75
2022/12/03 10:11:38;;;;;;;41.17;15.23;;;4.50;99.90;;;;;;5003622;28;20049;-74
2022/12/03 10:14:05;;;;;;;38.47;15.00;;;4.50;99.90;;;;;;5005892;28;20149;-76
2022/12/03 10:16:32;;;;;;;43.88;16.67;;;4.40;99.90;;;;;;5006622;28;20029;-75
2022/12/03 10:18:59;;;;;;;38.17;15.02;;;4.40;99.90;;;;;;5007650;28;20405;-73
2022/12/03 10:21:36;;;;;;;44.17;16.42;;;4.40;99.90;;;;;;5006347;28;20093;-74
2022/12/03 10:24:25;;;;;;;40.35;15.57;;;4.40;99.90;;;;;;5010466;28;20051;-75
2022/12/03 10:26:53;;;;;;;42.47;15.80;;;4.40;99.90;;;;;;5001498;28;20125;-75
2022/12/03 10:29:22;;;;;;;42.55;15.38;;;4.40;99.90;;;;;;5008397;28;20030;-75
2022/12/03 10:32:14;;;;;;;42.92;15.77;;;4.30;99.90;;;;;;5007834;28;20024;-75
2022/12/03 10:34:40;;;;;;;39.15;15.63;;;4.30;99.90;;;;;;5003945;28;20049;-75
2022/12/03 10:37:18;;;;;;;45.72;17.38;;;4.30;99.90;;;;;;5006609;28;20027;-75
2022/12/03 10:40:07;;;;;;;48.60;17.23;;;4.30;99.90;;;;;;5002399;28;20407;-74
2022/12/03 10:42:37;;;;;;;48.97;18.20;;;4.30;99.90;;;;;;5005349;28;20041;-75
2022/12/03 10:45:15;;;;;;;40.75;15.18;;;4.40;99.90;;;;;;5007880;28;20021;-76
2022/12/03 10:47:42;;;;;;;40.50;14.93;;;4.50;99.90;;;;;;5005774;28;20038;-74
2022/12/03 10:50:19;;;;;;;47.35;16.55;;;4.50;99.90;;;;;;5002771;28;20057;-74
2022/12/03 10:52:48;;;;;;;45.25;15.98;;;4.60;99.90;;;;;;5006753;28;20033;-73
2022/12/03 10:55:14;;;;;;;45.20;16.75;;;4.70;99.90;;;;;;5011140;28;20026;-74
2022/12/03 10:57:43;;;;;;;43.78;15.75;;;4.60;99.90;;;;;;5004570;28;20153;-73
2022/12/03 11:00:16;;;;;;;52.17;16.85;;;4.70;99.90;;;;;;5010051;28;20021;-76
2022/12/03 11:02:41;;;;;;;41.42;16.15;;;4.70;99.90;;;;;;5009506;28;20090;-76
2022/12/03 11:05:15;;;;;;;42.38;16.05;;;4.70;99.90;;;;;;5014359;28;20100;-77
2022/12/03 11:07:42;;;;;;;47.10;17.10;;;4.70;99.90;;;;;;5012280;28;20041;-75
2022/12/03 11:10:14;;;;;;;48.67;15.80;;;4.70;99.90;;;;;;5016432;28;20083;-72
2022/12/03 11:12:43;;;;;;;52.05;16.60;;;4.60;99.90;;;;;;5011686;28;20078;-76
2022/12/03 11:15:17;;;;;;;44.50;16.33;;;4.60;99.90;;;;;;5010101;28;20040;-75
2022/12/03 11:17:45;;;;;;;50.63;17.98;;;4.60;99.90;;;;;;5011411;28;20042;-76
2022/12/03 11:20:23;;;;;;;52.05;18.15;;;4.50;99.90;;;;;;5011064;28;20477;-75
2022/12/03 11:22:51;;;;;;;44.80;16.83;;;4.40;99.90;;;;;;5015203;28;20459;-75
2022/12/03 11:25:25;;;;;;;118.13;38.10;;;4.40;99.90;;;;;;5019139;28;20316;-78
2022/12/03 11:28:10;;;;;;;54.08;17.85;;;4.40;99.90;;;;;;5008083;28;20037;-72
2022/12/03 11:30:48;;;;;;;54.35;17.83;;;4.40;99.90;;;;;;5008205;28;20025;-75
2022/12/03 11:33:23;;;;;;;54.03;18.90;;;4.40;99.90;;;;;;5009755;28;20042;-74
2022/12/03 11:36:04;;;;;;;55.05;18.58;;;4.30;99.90;;;;;;5003304;28;20030;-74
2022/12/03 11:38:47;;;;;;;51.28;18.42;;;4.30;99.90;;;;;;5006056;28;20870;-74
2022/12/03 11:41:19;;;;;;;48.35;17.98;;;4.30;99.90;;;;;;5006144;28;20090;-76
2022/12/03 11:43:56;;;;;;;48.45;17.25;;;4.30;99.90;;;;;;5006107;28;20470;-75
2022/12/03 11:46:45;;;;;;;49.28;18.70;;;4.40;99.90;;;;;;5003429;28;20361;-75
2022/12/03 11:49:36;;;;;;;48.60;17.02;;;4.30;99.90;;;;;;5006139;28;20097;-75
2022/12/03 11:52:18;;;;;;;48.85;16.73;;;4.30;99.90;;;;;;5002525;28;20057;-73
2022/12/03 11:54:46;;;;;;;51.47;17.73;;;4.30;99.90;;;;;;5004399;28;20390;-74
2022/12/03 11:57:38;;;;;;;51.45;18.15;;;4.20;99.90;;;;;;5004827;28;20041;-75
2022/12/03 12:00:11;;;;;;;54.25;18.35;;;4.20;99.90;;;;;;5005862;28;20048;-75
2022/12/03 12:02:38;;;;;;;53.45;18.10;;;4.20;99.90;;;;;;5004247;28;20168;-75
2022/12/03 12:05:36;;;;;;;55.15;19.92;;;4.30;99.90;;;;;;5003549;28;20030;-76
2022/12/03 12:08:02;;;;;;;52.08;17.45;;;4.30;99.90;;;;;;5006602;28;20030;-75
2022/12/03 12:10:46;;;;;;;54.47;18.00;;;4.30;99.90;;;;;;5004117;28;20030;-75
2022/12/03 12:13:27;;;;;;;50.17;17.92;;;4.20;99.90;;;;;;5003556;28;20351;-75
2022/12/03 12:15:53;;;;;;;53.67;19.83;;;4.20;99.90;;;;;;5006983;28;20120;-74
2022/12/03 12:18:35;;;;;;;50.78;18.58;;;4.20;99.90;;;;;;5001328;28;20037;-74
2022/12/03 12:21:39;;;;;;;53.47;19.52;;;4.20;99.90;;;;;;5016767;28;20486;-76
2022/12/03 12:24:31;;;;;;;44.53;17.23;;;4.30;99.90;;;;;;5007574;28;20025;-72
2022/12/03 12:26:59;;;;;;;48.13;17.38;;;4.20;99.90;;;;;;5005593;28;20187;-76
2022/12/03 12:29:27;;;;;;;54.80;18.10;;;4.20;99.90;;;;;;5005818;28;20038;-76
2022/12/03 12:32:13;;;;;;;55.00;19.65;;;4.40;99.90;;;;;;5002807;28;20070;-73
2022/12/03 12:34:43;;;;;;;51.67;17.55;;;4.30;99.90;;;;;;5006340;28;20026;-74
2022/12/03 12:37:30;;;;;;;47.67;17.65;;;4.30;99.90;;;;;;5024657;28;20025;-76
2022/12/03 12:39:56;;;;;;;55.08;20.75;;;4.20;99.90;;;;;;5036131;28;20026;-75
2022/12/03 12:42:34;;;;;;;49.17;18.80;;;4.30;99.90;;;;;;5009584;28;20030;-75
2022/12/03 12:45:11;;;;;;;54.33;18.80;;;4.30;99.90;;;;;;5012040;28;20104;-75
2022/12/03 12:47:36;;;;;;;53.78;18.48;;;4.40;99.90;;;;;;5013677;28;20022;-76
2022/12/03 12:50:09;;;;;;;48.15;17.98;;;4.40;99.90;;;;;;5006710;28;20029;-76
2022/12/03 12:52:39;;;;;;;50.97;17.92;;;4.30;99.90;;;;;;5005012;28;20034;-75
2022/12/03 12:55:11;;;;;;;57.75;19.58;;;4.30;99.90;;;;;;5010272;28;20115;-74
2022/12/03 12:57:36;;;;;;;53.97;18.33;;;4.40;99.90;;;;;;5011045;28;20030;-76
2022/12/03 13:00:04;;;;;;;49.05;17.60;;;4.40;99.90;;;;;;5006819;28;20029;-75
2022/12/03 13:02:29;;;;;;;53.42;19.63;;;4.30;99.90;;;;;;5011868;28;20034;-75
2022/12/03 13:05:01;;;;;;;57.13;19.40;;;4.30;99.90;;;;;;5010952;28;20018;-75
2022/12/03 13:07:26;;;;;;;55.58;19.88;;;4.30;99.90;;;;;;5013734;28;20494;-75
2022/12/03 13:09:54;;;;;;;58.90;19.58;;;4.30;99.90;;;;;;5014290;28;20040;-76